Time;durP1;ratioP1;P1;durP2;ratioP2;P2;SDS_P1;SDS_P2;PMS_P1;PMS_P2;Temp;Humidity;BMP_temperature;BMP_pressure;BME280_temperature;BME280_humidity;BME280_pressure;Samples;Min_cycle;Max_cycle;Signal;HPM_P1;HPM_P2
2021/11/26 00:00:11;;;;;;;14.00;11.22;;;;;;;3.25;71.42;99006.31;1746582;80;20988;-40
2021/11/26 00:02:40;;;;;;;16.55;11.75;;;;;;;3.24;71.39;98996.18;1736914;81;21009;-39
2021/11/26 00:05:08;;;;;;;17.62;12.20;;;;;;;3.24;71.39;98996.73;1737073;82;21790;-40
2021/11/26 00:07:35;;;;;;;20.37;12.15;;;;;;;3.25;71.42;98991.03;1748966;82;20925;-40
2021/11/26 00:10:05;;;;;;;20.10;12.60;;;;;;;3.25;71.40;98984.89;1735376;82;20928;-40
2021/11/26 00:12:32;;;;;;;15.45;12.30;;;;;;;3.22;71.44;98974.82;1722350;82;20972;-40
2021/11/26 00:17:27;;;;;;;15.60;11.50;;;;;;;3.20;71.53;98989.08;1732911;82;21032;-39
2021/11/26 00:19:54;;;;;;;19.70;12.45;;;;;;;3.19;71.44;98986.98;1717875;82;20992;-39
2021/11/26 00:22:21;;;;;;;14.87;11.28;;;;;;;3.21;71.50;98996.80;1719041;82;21063;-39
2021/11/26 00:24:49;;;;;;;16.67;12.25;;;;;;;3.18;71.59;98994.77;1751262;80;22354;-39
2021/11/26 00:27:16;;;;;;;18.12;12.40;;;;;;;3.14;71.70;98989.03;1753987;80;21079;-39
2021/11/26 00:29:43;;;;;;;18.27;12.20;;;;;;;3.11;71.92;98989.10;1731322;80;21870;-39
2021/11/26 00:32:11;;;;;;;16.48;12.37;;;;;;;3.07;72.12;98972.11;1736484;82;21511;-39
2021/11/26 00:34:38;;;;;;;17.20;11.25;;;;;;;3.08;72.07;98968.33;1746483;82;21063;-39
2021/11/26 00:37:05;;;;;;;17.80;11.95;;;;;;;3.08;72.00;98972.89;1748550;82;21025;-40
2021/11/26 00:39:32;;;;;;;17.23;12.37;;;;;;;3.07;72.20;98965.41;1713853;82;21084;-39
2021/11/26 00:42:01;;;;;;;16.20;12.40;;;;;;;3.06;72.18;98978.56;1723428;82;20940;-39
2021/11/26 00:44:28;;;;;;;20.48;12.93;;;;;;;3.00;72.50;98975.26;1723164;82;21558;-39
2021/11/26 00:46:55;;;;;;;17.70;11.55;;;;;;;2.96;72.60;98978.34;1735848;80;21331;-39
2021/11/26 00:52:15;;;;;;;17.30;12.50;;;;;;;2.98;72.69;98950.71;1782860;79;21986;-39
2021/11/26 00:54:41;;;;;;;16.65;13.00;;;;;;;2.93;72.81;98960.80;1757156;81;20902;-39
2021/11/26 00:57:09;;;;;;;18.90;12.82;;;;;;;2.93;72.78;98954.89;1756980;81;21239;-38
2021/11/26 00:59:37;;;;;;;21.30;13.43;;;;;;;2.91;72.89;98938.90;1753556;81;21547;-38
2021/11/26 01:02:05;;;;;;;17.48;12.20;;;;;;;2.89;73.01;98935.77;1754844;81;20992;-39
2021/11/26 01:04:33;;;;;;;17.60;11.97;;;;;;;2.86;72.97;98934.50;1725814;81;21016;-38
2021/11/26 01:07:01;;;;;;;16.42;12.00;;;;;;;2.86;73.04;98932.38;1719035;83;21500;-39
2021/11/26 01:09:30;;;;;;;16.00;12.53;;;;;;;2.87;72.98;98933.95;1740594;81;21129;-39
2021/11/26 01:11:57;;;;;;;17.77;12.78;;;;;;;2.85;73.12;98933.50;1756783;81;21788;-39
2021/11/26 01:14:24;;;;;;;16.00;12.18;;;;;;;2.82;73.25;98933.57;1756908;81;21543;-38
2021/11/26 01:16:52;;;;;;;15.65;11.10;;;;;;;2.79;73.38;98922.17;1735104;81;20986;-38
2021/11/26 01:19:19;;;;;;;16.60;11.75;;;;;;;2.80;73.30;98918.95;1756935;81;21009;-39
2021/11/26 01:21:46;;;;;;;19.42;11.88;;;;;;;2.82;73.33;98922.08;1737619;81;21129;-39
2021/11/26 01:24:14;;;;;;;17.05;12.65;;;;;;;2.81;73.38;98917.27;1743360;81;21559;-38
2021/11/26 01:26:42;;;;;;;15.68;12.23;;;;;;;2.80;73.53;98929.11;1756759;81;21012;-38
2021/11/26 01:29:09;;;;;;;16.37;12.88;;;;;;;2.78;73.48;98920.59;1756918;81;20897;-39
2021/11/26 01:31:37;;;;;;;17.37;12.28;;;;;;;2.75;73.70;98925.26;1756988;81;21044;-38
2021/11/26 01:34:07;;;;;;;18.48;11.40;;;;;;;2.73;73.66;98918.09;1756838;81;21955;-39
2021/11/26 01:36:34;;;;;;;17.10;11.85;;;;;;;2.75;73.66;98926.59;1755665;81;21032;-38
2021/11/26 01:39:05;;;;;;;17.17;11.93;;;;;;;2.75;73.64;98925.26;1752482;81;21602;-38
2021/11/26 01:41:35;;;;;;;18.85;13.48;;;;;;;2.76;73.65;98929.48;1753961;81;26559;-39
2021/11/26 01:44:03;;;;;;;17.95;11.60;;;;;;;2.75;73.65;98923.12;1727299;81;21045;-39
2021/11/26 01:46:30;;;;;;;18.35;12.25;;;;;;;2.72;73.65;98919.73;1750113;81;21851;-38
2021/11/26 01:48:57;;;;;;;19.70;11.57;;;;;;;2.72;73.71;98916.51;1720910;81;21044;-39
2021/11/26 01:51:25;;;;;;;17.50;12.47;;;;;;;2.36;73.72;98862.60;1751705;81;21047;-39
2021/11/26 01:53:52;;;;;;;17.92;11.57;;;;;;;2.72;73.75;98918.39;1741147;82;21021;-38
2021/11/26 01:56:19;;;;;;;17.45;12.63;;;;;;;2.68;73.79;98918.25;1719626;82;21804;-38
2021/11/26 01:58:47;;;;;;;17.32;12.82;;;;;;;2.64;73.86;98918.66;1735422;82;21953;-39
2021/11/26 02:01:15;;;;;;;18.35;12.43;;;;;;;2.60;74.01;98911.03;1720002;82;21044;-38
2021/11/26 02:03:42;;;;;;;18.32;11.83;;;;;;;2.59;74.02;98906.78;1719340;82;20993;-39
2021/11/26 02:06:12;;;;;;;16.67;11.38;;;;;;;2.56;74.16;98907.42;1715077;80;21040;-38
2021/11/26 02:08:39;;;;;;;15.32;11.57;;;;;;;2.57;74.23;98906.30;1769164;80;20980;-38
2021/11/26 02:11:07;;;;;;;17.42;12.28;;;;;;;2.55;74.22;98907.19;1754073;81;21167;-39
2021/11/26 02:13:34;;;;;;;17.57;12.00;;;;;;;2.54;74.16;98905.61;1748807;82;20950;-38
2021/11/26 02:16:03;;;;;;;15.28;12.00;;;;;;;2.52;74.12;98905.13;1727117;82;20926;-38
2021/11/26 02:18:31;;;;;;;12.20;9.40;;;;;;;2.48;74.10;98898.84;1722197;81;21058;-38
2021/11/26 02:20:57;;;;;;;17.07;12.33;;;;;;;2.48;74.11;98898.30;1682191;83;21594;-38
2021/11/26 02:23:26;;;;;;;16.60;12.25;;;;;;;2.49;74.06;98895.86;1726849;81;21932;-38
2021/11/26 02:25:53;;;;;;;18.15;13.20;;;;;;;2.46;74.15;98891.16;1736377;80;20965;-39
2021/11/26 02:28:20;;;;;;;17.87;11.50;;;;;;;2.43;74.23;98899.00;1736982;82;21018;-38
2021/11/26 02:30:48;;;;;;;16.37;12.63;;;;;;;2.42;74.16;98878.73;1746788;82;21088;-38
2021/11/26 02:33:18;;;;;;;17.95;12.18;;;;;;;2.41;74.25;98870.46;1730974;82;21559;-39
2021/11/26 02:35:47;;;;;;;16.90;11.70;;;;;;;2.44;74.02;98869.81;1719452;82;21112;-38
2021/11/26 02:38:14;;;;;;;17.42;12.65;;;;;;;2.42;74.01;98868.78;1745477;82;20998;-38
2021/11/26 02:40:44;;;;;;;17.37;12.98;;;;;;;2.39;74.03;98863.29;1719363;82;20977;-38
2021/11/26 02:43:12;;;;;;;16.27;12.10;;;;;;;2.36;74.07;98854.58;1719437;82;21506;-38
2021/11/26 02:45:41;;;;;;;15.80;11.55;;;;;;;2.37;74.13;98853.48;1735419;82;21043;-39
2021/11/26 02:48:08;;;;;;;17.25;12.03;;;;;;;2.37;74.14;98857.49;1740615;80;21098;-38
2021/11/26 02:50:35;;;;;;;19.57;11.12;;;;;;;2.35;74.14;98867.16;1720527;82;21008;-39
2021/11/26 02:53:03;;;;;;;16.23;12.63;;;;;;;2.34;74.14;98875.49;1725710;82;21007;-38
2021/11/26 02:55:32;;;;;;;16.27;11.83;;;;;;;2.30;74.35;98874.56;1735117;82;21029;-38
2021/11/26 02:57:59;;;;;;;14.78;11.38;;;;;;;2.28;74.39;98876.75;1719282;82;21484;-39
2021/11/26 03:00:28;;;;;;;18.52;11.55;;;;;;;2.29;74.24;98875.11;1735516;82;21511;-38
2021/11/26 03:02:57;;;;;;;15.25;11.60;;;;;;;2.30;74.22;98868.66;1723832;82;21029;-39
2021/11/26 03:05:24;;;;;;;17.55;12.55;;;;;;;2.33;74.19;98867.22;1704638;82;21797;-38
2021/11/26 03:07:52;;;;;;;16.35;12.95;;;;;;;2.31;74.21;98864.10;1731440;81;20993;-39
2021/11/26 03:10:20;;;;;;;17.70;12.25;;;;;;;2.28;74.24;98858.03;1741830;82;21010;-39
2021/11/26 03:13:02;;;;;;;17.00;11.70;;;;;;;2.28;74.15;98852.68;1715568;82;21184;-38
2021/11/26 03:15:30;;;;;;;16.82;11.55;;;;;;;2.32;74.07;98857.66;1728610;80;20911;-38
2021/11/26 03:17:57;;;;;;;15.60;11.15;;;;;;;2.35;73.96;98857.01;1743271;82;21251;-38
2021/11/26 03:20:25;;;;;;;15.98;12.23;;;;;;;2.33;73.94;98852.52;1739939;81;21542;-38
2021/11/26 03:22:52;;;;;;;16.77;12.47;;;;;;;2.31;73.93;98856.08;1741475;82;21006;-39
2021/11/26 03:25:19;;;;;;;13.85;10.90;;;;;;;2.27;73.92;98849.24;1741254;82;21164;-38
2021/11/26 03:27:48;;;;;;;14.75;11.63;;;;;;;2.28;73.87;98845.99;1735905;82;21586;-38
2021/11/26 03:30:18;;;;;;;19.32;11.50;;;;;;;2.34;73.69;98848.74;1721169;82;21089;-38
2021/11/26 03:32:45;;;;;;;18.02;12.03;;;;;;;2.37;73.56;98856.16;1714334;82;21496;-38
2021/11/26 03:35:15;;;;;;;16.17;12.10;;;;;;;2.31;73.60;98858.75;1716919;81;21070;-38
2021/11/26 03:37:42;;;;;;;17.55;12.53;;;;;;;2.28;73.64;98851.34;1734753;82;21132;-38
2021/11/26 03:40:12;;;;;;;16.23;11.38;;;;;;;2.25;73.63;98861.34;1722640;82;21029;-38
2021/11/26 03:42:39;;;;;;;13.63;9.17;;;;;;;2.25;73.61;98860.80;1727944;80;20942;-39
2021/11/26 03:45:07;;;;;;;14.68;12.13;;;;;;;2.28;73.46;98862.04;1738939;82;20981;-39
2021/11/26 03:47:36;;;;;;;17.37;12.15;;;;;;;2.32;73.38;98854.98;1724521;82;21260;-38
2021/11/26 03:50:05;;;;;;;16.90;12.63;;;;;;;2.31;73.30;98853.40;1714064;82;21510;-39
2021/11/26 03:52:32;;;;;;;15.48;12.13;;;;;;;2.28;73.28;98856.69;1727842;81;20961;-38
2021/11/26 03:55:07;;;;;;;17.70;12.78;;;;;;;2.25;73.29;98856.00;1753157;81;21776;-39
2021/11/26 03:57:34;;;;;;;18.12;12.03;;;;;;;2.20;73.37;98851.59;1732497;81;21586;-38
2021/11/26 04:00:06;;;;;;;16.73;11.68;;;;;;;2.23;73.29;98850.95;1736329;81;21783;-38
2021/11/26 04:02:34;;;;;;;15.75;11.60;;;;;;;2.27;73.16;98857.81;1755964;81;21129;-39
2021/11/26 04:05:01;;;;;;;18.62;12.75;;;;;;;2.27;73.11;98848.45;1749312;81;20997;-39
2021/11/26 04:07:29;;;;;;;20.20;12.58;;;;;;;2.24;73.08;98846.40;1736738;81;21582;-38
2021/11/26 04:09:57;;;;;;;16.60;12.75;;;;;;;2.18;73.16;98843.88;1740894;81;21535;-39
2021/11/26 04:12:24;;;;;;;18.20;13.20;;;;;;;2.17;73.22;98842.34;1735741;81;21021;-39
2021/11/26 04:14:54;;;;;;;18.60;12.37;;;;;;;2.16;73.18;98840.76;1730507;81;21101;-38
2021/11/26 04:17:22;;;;;;;21.95;12.55;;;;;;;2.15;73.17;98841.06;1753969;81;20926;-38
2021/11/26 04:19:49;;;;;;;17.75;12.58;;;;;;;2.15;73.17;98836.50;1756656;81;21014;-38
2021/11/26 04:22:16;;;;;;;19.02;12.40;;;;;;;2.15;73.16;98839.18;1756244;81;21021;-39
2021/11/26 04:24:43;;;;;;;20.70;12.93;;;;;;;2.12;73.21;98833.14;1743151;80;21864;-39
2021/11/26 04:27:10;;;;;;;19.55;13.80;;;;;;;2.10;73.25;98838.55;1738399;81;21133;-39
2021/11/26 04:29:39;;;;;;;19.35;11.93;;;;;;;2.07;73.28;98840.53;1726615;81;21636;-39
2021/11/26 04:32:07;;;;;;;18.40;12.73;;;;;;;2.06;73.25;98837.06;1732848;81;21054;-38
2021/11/26 04:34:36;;;;;;;20.68;12.15;;;;;;;2.10;73.20;98849.25;1745298;81;21550;-38
2021/11/26 04:37:03;;;;;;;16.27;12.23;;;;;;;2.10;73.24;98846.02;1728174;81;21009;-38
2021/11/26 04:39:30;;;;;;;18.65;13.00;;;;;;;2.08;73.21;98844.20;1736893;81;21657;-38
2021/11/26 04:41:57;;;;;;;22.07;14.07;;;;;;;2.04;73.16;98845.16;1739633;81;21047;-38
2021/11/26 04:44:24;;;;;;;20.45;13.22;;;;;;;2.00;73.22;98846.89;1744835;81;20961;-38
2021/11/26 04:46:51;;;;;;;18.15;12.88;;;;;;;1.98;73.23;98841.87;1754849;81;21083;-38
2021/11/26 04:49:18;;;;;;;17.02;12.70;;;;;;;2.01;73.26;98855.15;1754661;81;21080;-38
2021/11/26 04:51:45;;;;;;;19.77;13.22;;;;;;;2.04;73.12;98847.83;1756098;81;21848;-39
2021/11/26 04:54:12;;;;;;;21.85;13.80;;;;;;;2.03;73.18;98848.95;1754257;81;21027;-38
2021/11/26 04:56:39;;;;;;;17.80;13.22;;;;;;;2.01;73.18;98841.78;1754180;81;20929;-38
2021/11/26 04:59:07;;;;;;;19.82;13.95;;;;;;;2.01;73.08;98831.88;1747091;81;21053;-39
2021/11/26 05:01:34;;;;;;;27.22;14.20;;;;;;;2.00;72.95;98829.52;1739842;81;21040;-38
2021/11/26 05:04:01;;;;;;;18.70;12.18;;;;;;;1.97;72.92;98842.97;1739762;81;21887;-39
2021/11/26 05:06:29;;;;;;;18.52;13.30;;;;;;;1.98;72.90;98845.89;1726623;82;20961;-39
2021/11/26 05:08:56;;;;;;;17.75;13.28;;;;;;;1.99;72.88;98838.08;1736607;81;21025;-39
2021/11/26 05:11:24;;;;;;;20.00;13.72;;;;;;;2.00;72.90;98840.20;1756145;81;20933;-39
2021/11/26 05:13:55;;;;;;;19.57;13.60;;;;;;;1.99;72.84;98846.65;1750630;81;21065;-39
2021/11/26 05:16:23;;;;;;;19.57;14.78;;;;;;;1.96;72.87;98844.06;1761384;80;21179;-38
2021/11/26 05:18:51;;;;;;;20.10;14.23;;;;;;;1.93;72.83;98838.03;1754169;81;21060;-38
2021/11/26 05:21:18;;;;;;;17.92;13.08;;;;;;;1.90;72.93;98836.52;1726393;83;20925;-38
2021/11/26 05:23:45;;;;;;;19.00;13.62;;;;;;;1.92;72.80;98836.45;1738443;81;21082;-38
2021/11/26 05:26:12;;;;;;;18.40;13.28;;;;;;;1.95;72.74;98828.34;1735742;80;21499;-38
2021/11/26 05:28:41;;;;;;;19.15;13.40;;;;;;;1.91;72.81;98829.52;1742655;81;21101;-38
2021/11/26 05:31:08;;;;;;;17.65;13.15;;;;;;;1.85;73.00;98837.45;1754190;81;21020;-39
2021/11/26 05:33:36;;;;;;;20.02;13.65;;;;;;;1.83;73.11;98830.32;1728514;81;20929;-38
2021/11/26 05:36:04;;;;;;;19.90;13.45;;;;;;;1.81;73.10;98825.83;1753811;81;20953;-38
2021/11/26 05:38:31;;;;;;;18.85;13.08;;;;;;;1.82;73.08;98818.05;1749994;80;21049;-38
2021/11/26 05:40:58;;;;;;;20.95;13.03;;;;;;;1.85;73.04;98823.30;1733117;81;21821;-39
2021/11/26 05:43:25;;;;;;;19.32;12.95;;;;;;;1.89;72.97;98823.70;1726516;83;20977;-38
2021/11/26 05:45:52;;;;;;;25.15;14.68;;;;;;;1.86;72.99;98815.53;1726814;83;20996;-39
2021/11/26 05:48:21;;;;;;;18.15;14.38;;;;;;;1.83;73.12;98816.95;1726734;81;20939;-38
2021/11/26 05:50:48;;;;;;;19.17;13.53;;;;;;;1.78;73.24;98820.33;1726945;83;21066;-38
2021/11/26 05:53:15;;;;;;;19.42;13.50;;;;;;;1.77;73.37;98829.45;1743495;81;21849;-38
2021/11/26 05:55:42;;;;;;;18.73;13.40;;;;;;;1.75;73.38;98829.75;1743481;82;21481;-38
2021/11/26 05:58:10;;;;;;;20.95;13.32;;;;;;;1.75;73.50;98827.08;1716789;82;20984;-38
2021/11/26 06:00:38;;;;;;;18.48;13.50;;;;;;;1.76;73.59;98835.34;1677898;85;21045;-39
2021/11/26 06:03:05;;;;;;;21.50;13.95;;;;;;;1.78;73.67;98830.48;1674917;85;21092;-39
2021/11/26 06:05:33;;;;;;;22.30;14.53;;;;;;;1.75;73.77;98830.53;1675934;84;23513;-38
2021/11/26 06:08:01;;;;;;;17.57;13.22;;;;;;;1.72;73.82;98829.05;1689320;84;20973;-39
2021/11/26 06:10:28;;;;;;;18.62;13.25;;;;;;;1.76;73.93;98827.31;1699423;84;21087;-38
2021/11/26 06:12:55;;;;;;;17.45;13.68;;;;;;;1.81;73.86;98830.38;1687425;82;21028;-38
2021/11/26 06:15:24;;;;;;;20.10;14.05;;;;;;;1.80;73.91;98826.92;1683282;84;21026;-38
2021/11/26 06:17:51;;;;;;;20.57;14.73;;;;;;;1.77;74.00;98834.24;1732671;82;21138;-39
2021/11/26 06:20:18;;;;;;;17.90;12.78;;;;;;;1.75;74.18;98836.42;1739154;82;21053;-38
2021/11/26 06:22:45;;;;;;;17.32;13.38;;;;;;;1.77;74.21;98850.82;1739064;80;21017;-38
2021/11/26 06:25:14;;;;;;;19.55;13.00;;;;;;;1.81;74.22;98855.22;1741588;82;21019;-38
2021/11/26 06:27:41;;;;;;;20.60;14.07;;;;;;;1.85;74.16;98855.38;1714127;82;20989;-39
2021/11/26 06:30:12;;;;;;;23.35;14.00;;;;;;;1.84;74.25;98856.50;1709353;82;21166;-38
2021/11/26 06:32:40;;;;;;;17.00;13.30;;;;;;;1.83;74.35;98864.27;1739173;82;21014;-39
2021/11/26 06:35:09;;;;;;;17.52;12.78;;;;;;;1.84;74.43;98852.48;1744278;81;21541;-39
2021/11/26 06:37:36;;;;;;;18.07;13.62;;;;;;;1.91;74.45;98853.58;1740569;82;20982;-39
2021/11/26 06:40:05;;;;;;;16.90;12.50;;;;;;;1.99;74.41;98849.32;1742094;82;20994;-38
2021/11/26 06:42:33;;;;;;;15.15;12.37;;;;;;;2.06;74.21;98836.28;1732176;81;21040;-38
2021/11/26 06:45:01;;;;;;;15.25;12.10;;;;;;;2.09;74.24;98839.09;1720652;82;21511;-39
2021/11/26 06:47:28;;;;;;;16.73;13.13;;;;;;;2.14;74.17;98850.97;1738772;81;21025;-38
2021/11/26 06:49:56;;;;;;;17.42;13.28;;;;;;;2.18;74.12;98854.58;1714857;82;21041;-39
2021/11/26 06:52:23;;;;;;;15.63;12.30;;;;;;;2.24;73.96;98852.53;1718045;82;20998;-38
2021/11/26 06:54:51;;;;;;;16.45;12.70;;;;;;;2.31;73.89;98845.38;1713692;82;21210;-39
2021/11/26 06:57:18;;;;;;;19.98;12.85;;;;;;;2.37;73.67;98844.12;1720499;81;21040;-39
2021/11/26 06:59:46;;;;;;;17.00;12.55;;;;;;;2.39;73.63;98847.23;1716670;82;20973;-39
2021/11/26 07:02:15;;;;;;;21.05;13.15;;;;;;;2.38;73.63;98845.11;1734524;81;20988;-39
2021/11/26 07:04:45;;;;;;;16.62;12.95;;;;;;;2.35;73.78;98846.31;1712628;82;21864;-39
2021/11/26 07:07:12;;;;;;;17.92;12.20;;;;;;;2.36;73.82;98846.55;1743312;82;21559;-39
2021/11/26 07:09:41;;;;;;;14.68;12.07;;;;;;;2.43;73.84;98844.16;1743145;82;20918;-39
2021/11/26 07:12:12;;;;;;;14.85;12.28;;;;;;;2.48;73.76;98839.98;1743255;82;20997;-39
2021/11/26 07:14:42;;;;;;;17.15;12.93;;;;;;;2.56;73.77;98839.19;1740440;80;20969;-39
2021/11/26 07:17:10;;;;;;;15.63;12.13;;;;;;;2.61;73.64;98846.47;1730208;80;21006;-39
2021/11/26 07:19:39;;;;;;;13.70;11.20;;;;;;;2.66;73.55;98846.88;1714022;82;21016;-39
2021/11/26 07:22:06;;;;;;;14.75;12.25;;;;;;;2.74;73.37;98835.91;1725720;82;21025;-39
2021/11/26 07:24:34;;;;;;;15.43;11.40;;;;;;;2.66;73.24;98807.28;1760567;81;20982;-39
2021/11/26 07:27:01;;;;;;;16.32;11.85;;;;;;;2.92;73.00;98836.06;1758115;81;21038;-39
2021/11/26 07:29:28;;;;;;;18.42;12.05;;;;;;;3.00;72.95;98831.24;1743273;81;21033;-39
2021/11/26 07:31:55;;;;;;;17.62;12.03;;;;;;;3.05;72.74;98823.79;1743266;82;21095;-39
2021/11/26 07:34:23;;;;;;;15.83;11.75;;;;;;;3.13;72.57;98823.53;1743095;82;21049;-39
2021/11/26 07:36:50;;;;;;;13.30;10.58;;;;;;;3.25;72.39;98822.82;1743284;81;20966;-39
2021/11/26 07:39:18;;;;;;;15.30;11.03;;;;;;;3.37;71.69;98821.03;1733282;82;20977;-39
2021/11/26 07:41:46;;;;;;;16.55;11.55;;;;;;;3.44;71.32;98833.34;1734382;82;21073;-39
2021/11/26 07:44:15;;;;;;;16.17;11.50;;;;;;;3.49;71.21;98831.03;1743570;81;21095;-39
2021/11/26 07:46:42;;;;;;;15.45;12.25;;;;;;;3.49;71.21;98831.03;1721357;80;21026;-39
2021/11/26 07:49:09;;;;;;;16.10;11.28;;;;;;;3.51;71.13;98842.22;1719366;82;20931;-39
2021/11/26 07:51:38;;;;;;;13.98;10.80;;;;;;;3.53;71.07;98838.67;1707937;81;20965;-39
2021/11/26 07:54:05;;;;;;;14.98;10.95;;;;;;;3.60;70.91;98847.52;1742392;80;21091;-39
2021/11/26 07:56:35;;;;;;;12.93;11.12;;;;;;;3.67;70.68;98848.59;1747963;81;21955;-39
2021/11/26 07:59:02;;;;;;;16.57;12.78;;;;;;;3.75;70.59;98849.63;1734590;80;21045;-39
2021/11/26 08:01:29;;;;;;;16.25;12.25;;;;;;;3.82;70.39;98843.20;1751511;80;21022;-39
2021/11/26 08:03:56;;;;;;;14.50;10.95;;;;;;;3.90;70.29;98842.34;1746692;81;21502;-39
2021/11/26 08:06:23;;;;;;;14.30;11.57;;;;;;;4.01;70.02;98849.44;1756858;80;21365;-39
2021/11/26 08:08:50;;;;;;;13.93;11.00;;;;;;;4.11;69.80;98850.37;1733923;80;21139;-39
2021/11/26 08:11:17;;;;;;;17.90;11.35;;;;;;;4.12;69.41;98855.39;1748973;81;20931;-39
2021/11/26 08:13:44;;;;;;;16.85;12.65;;;;;;;4.10;69.45;98856.85;1724987;83;20971;-39
2021/11/26 08:16:12;;;;;;;15.88;12.58;;;;;;;4.09;69.35;98855.27;1750740;81;21044;-39
2021/11/26 08:18:40;;;;;;;13.53;10.80;;;;;;;4.05;69.50;98846.32;1736536;81;21558;-40
2021/11/26 08:21:08;;;;;;;13.53;9.63;;;;;;;4.03;69.75;98849.87;1736468;81;21958;-39
2021/11/26 08:23:34;;;;;;;12.20;10.70;;;;;;;4.08;69.48;98839.73;1739091;81;21013;-39
2021/11/26 08:26:02;;;;;;;19.45;14.30;;;;;;;4.14;69.44;98834.95;1739357;81;21058;-39
2021/11/26 08:28:29;;;;;;;18.30;10.72;;;;;;;4.21;69.59;98827.17;1751991;81;20990;-39
2021/11/26 08:30:56;;;;;;;13.13;10.35;;;;;;;4.32;69.34;98828.31;1745208;81;21520;-39
2021/11/26 08:33:24;;;;;;;15.83;10.48;;;;;;;4.45;69.06;98827.25;1750017;81;21135;-39
2021/11/26 08:35:53;;;;;;;10.88;8.95;;;;;;;4.64;68.94;98820.80;1735869;80;21033;-39
2021/11/26 08:38:20;;;;;;;13.30;10.72;;;;;;;4.87;67.79;98828.44;1699911;83;21273;-39
2021/11/26 08:40:48;;;;;;;11.08;9.50;;;;;;;5.07;67.47;98824.87;1702803;82;21261;-39
2021/11/26 08:43:15;;;;;;;12.13;10.18;;;;;;;5.28;66.55;98815.36;1707747;83;21030;-39
2021/11/26 08:45:45;;;;;;;13.32;10.50;;;;;;;5.42;65.46;98823.27;1690236;84;20985;-39
2021/11/26 08:48:13;;;;;;;15.03;11.12;;;;;;;5.49;65.16;98819.45;1674288;85;21092;-40
2021/11/26 08:50:40;;;;;;;13.83;9.58;;;;;;;5.45;64.60;98815.89;1674428;84;21584;-39
2021/11/26 08:53:09;;;;;;;16.42;10.58;;;;;;;5.45;65.05;98801.09;1701479;83;21059;-39
2021/11/26 08:55:38;;;;;;;11.77;9.33;;;;;;;5.53;65.31;98797.48;1693018;84;21086;-39
2021/11/26 08:58:07;;;;;;;12.20;9.65;;;;;;;5.64;64.77;98784.36;1696414;83;21598;-39
2021/11/26 09:00:35;;;;;;;11.55;9.33;;;;;;;5.74;64.24;98776.38;1711120;83;21530;-39
2021/11/26 09:03:04;;;;;;;12.93;10.08;;;;;;;5.79;64.18;98755.97;1699536;84;21045;-38
2021/11/26 09:05:32;;;;;;;12.25;9.68;;;;;;;5.78;63.99;98745.77;1659623;84;21026;-39
2021/11/26 09:08:02;;;;;;;13.35;9.88;;;;;;;5.77;64.20;98757.64;1686486;82;21093;-39
2021/11/26 09:10:35;;;;;;;16.15;10.10;;;;;;;5.78;63.88;98772.66;1655197;83;22357;-39
2021/11/26 09:13:04;;;;;;;14.03;10.15;;;;;;;5.81;63.85;98780.63;1699664;83;20981;-39
2021/11/26 09:15:33;;;;;;;;;;;;;;;5.87;63.88;98794.06;1689103;82;21024;-39
2021/11/26 09:18:00;;;;;;;16.20;9.98;;;;;;;5.96;63.79;98789.31;1704976;84;20435;-38
2021/11/26 09:20:27;;;;;;;14.15;9.50;;;;;;;6.02;63.89;98777.20;1708489;83;21622;-39
2021/11/26 09:22:54;;;;;;;11.73;9.03;;;;;;;6.24;63.20;98776.66;1710505;83;21216;-39
2021/11/26 09:25:22;;;;;;;13.43;9.28;;;;;;;6.40;61.93;98758.59;1710853;83;20989;-40
2021/11/26 09:27:48;;;;;;;13.88;9.98;;;;;;;6.48;61.93;98769.00;1702835;83;21583;-39
2021/11/26 09:30:18;;;;;;;12.23;9.18;;;;;;;6.48;61.27;98751.50;1737969;81;20996;-38
2021/11/26 09:32:45;;;;;;;15.10;10.23;;;;;;;6.38;61.21;98750.10;1737627;81;21006;-39
2021/11/26 09:35:14;;;;;;;10.43;8.83;;;;;;;6.30;61.60;98745.64;1713001;82;21133;-39
2021/11/26 09:37:41;;;;;;;13.15;9.78;;;;;;;6.29;62.01;98737.94;1708795;82;20997;-39
2021/11/26 09:40:10;;;;;;;12.45;9.53;;;;;;;6.31;61.65;98727.59;1728138;82;21022;-38
2021/11/26 09:42:44;;;;;;;13.45;9.65;;;;;;;6.33;61.57;98732.86;1729210;82;21005;-38
2021/11/26 09:45:14;;;;;;;22.40;15.20;;;;;;;6.31;61.52;98726.24;1743241;81;21558;-39
2021/11/26 09:47:41;;;;;;;51.23;28.73;;;;;;;6.30;61.95;98730.05;1743866;81;21889;-39
2021/11/26 09:50:09;;;;;;;26.00;17.20;;;;;;;6.34;62.07;98734.99;1725491;82;21500;-39
2021/11/26 09:52:40;;;;;;;11.80;9.18;;;;;;;6.41;61.96;98723.83;1713874;82;21583;-39
2021/11/26 09:55:09;;;;;;;10.35;8.33;;;;;;;6.47;61.91;98721.09;1689797;84;21033;-39
2021/11/26 09:57:36;;;;;;;11.83;8.77;;;;;;;6.54;61.74;98716.43;1686023;84;21078;-39
2021/11/26 10:00:05;;;;;;;14.58;8.55;;;;;;;6.60;61.53;98711.56;1658932;84;21129;-39
2021/11/26 10:02:31;;;;;;;11.78;9.20;;;;;;;6.59;61.58;98705.39;1699699;83;20997;-39
2021/11/26 10:05:05;;;;;;;14.25;9.40;;;;;;;6.57;61.30;98710.92;1688125;84;21020;-38
2021/11/26 10:07:34;;;;;;;13.30;10.03;;;;;;;6.52;61.34;98710.06;1698513;84;21044;-38
2021/11/26 10:10:10;;;;;;;13.40;9.03;;;;;;;6.50;61.58;98715.00;1723515;82;20936;-38
2021/11/26 10:12:37;;;;;;;11.93;9.65;;;;;;;6.54;61.59;98717.78;1705484;83;21095;-38
2021/11/26 10:15:06;;;;;;;12.05;9.00;;;;;;;6.63;61.29;98711.67;1727165;82;21024;-38
2021/11/26 10:17:36;;;;;;;11.83;8.80;;;;;;;6.70;61.39;98706.44;1737706;82;21020;-38
2021/11/26 10:20:13;;;;;;;18.25;10.43;;;;;;;6.76;61.15;98696.97;1739020;81;20981;-38
2021/11/26 10:22:44;;;;;;;10.53;8.50;;;;;;;6.82;61.02;98692.09;1745079;81;21037;-38
2021/11/26 10:25:16;;;;;;;11.68;9.05;;;;;;;6.96;60.73;98685.68;1725668;81;21196;-38
2021/11/26 10:27:54;;;;;;;10.65;8.03;;;;;;;7.13;60.39;98686.62;1714094;82;21488;-38
2021/11/26 10:30:27;;;;;;;11.05;8.65;;;;;;;7.35;60.43;98677.08;1679685;84;21041;-39
2021/11/26 10:33:17;;;;;;;13.28;9.13;;;;;;;7.64;59.68;98685.16;1730249;81;21088;-39
2021/11/26 10:35:57;;;;;;;11.75;8.38;;;;;;;7.89;58.25;98676.95;1698193;83;21570;-39
2021/11/26 10:38:33;;;;;;;11.55;9.13;;;;;;;7.96;57.84;98687.89;1704319;82;21106;-39
2021/11/26 10:41:12;;;;;;;10.98;8.53;;;;;;;8.02;57.15;98682.41;1707349;84;21488;-39
2021/11/26 10:43:54;;;;;;;11.63;9.18;;;;;;;8.04;57.09;98684.16;1707616;84;21044;-40
2021/11/26 10:49:01;;;;;;;14.28;8.78;;;;;;;8.19;56.89;98680.58;1739856;81;21484;-39
2021/11/26 10:57:23;;;;;;;9.23;7.97;;;;;;;8.60;55.91;98660.64;1705423;84;20976;-40
2021/11/26 10:59:28;;;;;;;9.88;7.60;;;;;;;8.90;55.51;98658.78;1701421;84;21097;-39
2021/11/26 11:01:56;;;;;;;11.25;8.08;;;;;;;9.22;55.08;98666.53;1706719;84;20956;-39
2021/11/26 11:04:26;;;;;;;10.65;8.13;;;;;;;9.45;53.63;98661.78;1741583;82;21128;-39
2021/11/26 11:07:08;;;;;;;10.23;7.75;;;;;;;9.56;52.93;98651.30;1716431;81;20985;-39
2021/11/26 11:09:47;;;;;;;9.83;7.67;;;;;;;9.68;52.88;98647.58;1695780;82;25010;-39
2021/11/26 11:12:15;;;;;;;22.82;14.28;;;;;;;9.79;52.09;98650.38;1698643;84;21076;-39
2021/11/26 11:14:55;;;;;;;11.73;7.72;;;;;;;9.79;52.06;98652.52;1743685;80;21041;-39
2021/11/26 11:17:28;;;;;;;10.32;7.80;;;;;;;9.73;51.92;98651.28;1714860;82;21127;-39
2021/11/26 11:19:54;;;;;;;10.40;7.95;;;;;;;9.76;52.15;98651.91;1706548;84;21547;-39
2021/11/26 11:22:22;;;;;;;11.05;7.72;;;;;;;9.76;51.74;98641.09;1732993;82;20997;-39
2021/11/26 11:24:49;;;;;;;10.65;7.53;;;;;;;9.79;52.08;98630.86;1734031;81;20961;-38
2021/11/26 11:27:16;;;;;;;9.95;8.08;;;;;;;9.82;52.16;98626.07;1726035;82;21085;-39
2021/11/26 11:29:43;;;;;;;10.40;8.00;;;;;;;9.93;51.77;98617.45;1724142;82;21981;-40
2021/11/26 11:32:10;;;;;;;11.20;8.45;;;;;;;10.02;51.49;98621.98;1714153;82;21516;-40
2021/11/26 11:34:37;;;;;;;14.63;9.98;;;;;;;10.02;50.94;98621.23;1661716;84;21838;-40
2021/11/26 11:37:17;;;;;;;12.20;9.23;;;;;;;10.04;51.21;98631.88;1704777;84;21524;-40
2021/11/26 11:39:47;;;;;;;9.75;8.20;;;;;;;10.09;50.64;98624.56;1684640;84;21078;-39
2021/11/26 11:42:24;;;;;;;12.25;9.33;;;;;;;10.10;51.17;98627.48;1701371;84;21119;-39
2021/11/26 11:44:58;;;;;;;9.63;8.53;;;;;;;10.12;50.96;98630.61;1672702;84;21025;-39